sensor_id;sensor_type;location;lat;lon;timestamp;noise_LAeq;noise_LA_min;noise_LA_max;noise_LA01;noise_LA95
48148;Laerm;29352;48.708;9.290;2023-04-29T00:01:07;51.98;50.33;55.30;;
48148;Laerm;29352;48.708;9.290;2023-04-29T00:03:33;52.09;50.13;54.83;;
48148;Laerm;29352;48.708;9.290;2023-04-29T00:05:59;52.31;50.62;60.38;;
48148;Laerm;29352;48.708;9.290;2023-04-29T00:08:26;52.30;50.53;64.34;;
48148;Laerm;29352;48.708;9.290;2023-04-29T00:10:51;52.03;50.71;62.85;;
48148;Laerm;29352;48.708;9.290;2023-04-29T00:13:17;52.82;50.53;61.00;;
48148;Laerm;29352;48.708;9.290;2023-04-29T00:15:42;52.43;50.36;57.95;;
48148;Laerm;29352;48.708;9.290;2023-04-29T00:18:09;52.43;50.80;59.25;;
48148;Laerm;29352;48.708;9.290;2023-04-29T00:20:35;52.52;50.53;59.91;;
48148;Laerm;29352;48.708;9.290;2023-04-29T00:23:02;52.89;50.71;61.60;;
48148;Laerm;29352;48.708;9.290;2023-04-29T00:25:28;52.22;50.53;57.40;;
48148;Laerm;29352;48.708;9.290;2023-04-29T00:27:54;52.23;50.43;57.70;;
48148;Laerm;29352;48.708;9.290;2023-04-29T00:30:19;52.28;50.71;59.51;;
48148;Laerm;29352;48.708;9.290;2023-04-29T00:32:45;52.35;50.43;58.80;;
48148;Laerm;29352;48.708;9.290;2023-04-29T00:35:11;52.38;50.71;56.25;;
48148;Laerm;29352;48.708;9.290;2023-04-29T00:37:36;52.24;50.23;56.45;;
48148;Laerm;29352;48.708;9.290;2023-04-29T00:40:02;52.14;50.53;60.41;;
48148;Laerm;29352;48.708;9.290;2023-04-29T00:42:30;52.02;50.62;56.93;;
48148;Laerm;29352;48.708;9.290;2023-04-29T00:44:58;51.90;50.43;56.45;;
48148;Laerm;29352;48.708;9.290;2023-04-29T00:47:24;51.74;50.13;54.54;;
48148;Laerm;29352;48.708;9.290;2023-04-29T00:49:50;52.03;50.71;56.84;;
48148;Laerm;29352;48.708;9.290;2023-04-29T00:52:16;52.01;50.62;55.96;;
48148;Laerm;29352;48.708;9.290;2023-04-29T00:54:43;52.05;50.33;57.67;;
48148;Laerm;29352;48.708;9.290;2023-04-29T00:57:09;52.22;50.23;60.62;;
48148;Laerm;29352;48.708;9.290;2023-04-29T00:59:36;52.31;50.33;58.90;;
48148;Laerm;29352;48.708;9.290;2023-04-29T01:02:03;52.38;50.62;60.88;;
48148;Laerm;29352;48.708;9.290;2023-04-29T01:04:31;52.58;50.33;57.19;;
48148;Laerm;29352;48.708;9.290;2023-04-29T01:10:08;52.23;50.53;58.12;;
48148;Laerm;29352;48.708;9.290;2023-04-29T01:15:27;52.79;50.98;57.22;;
48148;Laerm;29352;48.708;9.290;2023-04-29T01:18:04;52.40;50.53;56.55;;
48148;Laerm;29352;48.708;9.290;2023-04-29T01:20:31;52.22;50.62;61.33;;
48148;Laerm;29352;48.708;9.290;2023-04-29T01:22:57;52.08;50.43;54.65;;
48148;Laerm;29352;48.708;9.290;2023-04-29T01:25:23;52.02;50.33;57.84;;
48148;Laerm;29352;48.708;9.290;2023-04-29T01:28:23;52.15;50.33;57.63;;
48148;Laerm;29352;48.708;9.290;2023-04-29T01:34:22;52.25;50.43;56.52;;
48148;Laerm;29352;48.708;9.290;2023-04-29T01:40:20;52.50;50.53;58.95;;
48148;Laerm;29352;48.708;9.290;2023-04-29T01:43:04;52.77;50.71;59.77;;
48148;Laerm;29352;48.708;9.290;2023-04-29T01:45:38;52.64;50.43;62.19;;
48148;Laerm;29352;48.708;9.290;2023-04-29T01:48:07;52.83;50.03;63.72;;
48148;Laerm;29352;48.708;9.290;2023-04-29T01:50:33;52.16;50.13;63.45;;
48148;Laerm;29352;48.708;9.290;2023-04-29T01:52:59;52.05;50.43;61.11;;
48148;Laerm;29352;48.708;9.290;2023-04-29T01:55:24;51.71;50.33;56.45;;
48148;Laerm;29352;48.708;9.290;2023-04-29T01:57:50;51.60;50.23;54.23;;
48148;Laerm;29352;48.708;9.290;2023-04-29T02:00:16;51.97;50.36;53.86;;
48148;Laerm;29352;48.708;9.290;2023-04-29T02:02:41;52.30;50.53;55.83;;
48148;Laerm;29352;48.708;9.290;2023-04-29T02:05:07;51.86;50.33;53.77;;
48148;Laerm;29352;48.708;9.290;2023-04-29T02:07:34;51.55;50.33;52.59;;
48148;Laerm;29352;48.708;9.290;2023-04-29T02:09:59;51.66;50.33;53.29;;
48148;Laerm;29352;48.708;9.290;2023-04-29T02:12:24;51.73;50.33;53.39;;
48148;Laerm;29352;48.708;9.290;2023-04-29T02:14:53;51.65;50.23;53.19;;
48148;Laerm;29352;48.708;9.290;2023-04-29T02:17:19;51.53;50.33;52.93;;
48148;Laerm;29352;48.708;9.290;2023-04-29T02:19:44;51.50;50.13;52.82;;
48148;Laerm;29352;48.708;9.290;2023-04-29T02:22:10;51.44;50.23;53.39;;
48148;Laerm;29352;48.708;9.290;2023-04-29T02:24:37;51.42;50.23;52.53;;
48148;Laerm;29352;48.708;9.290;2023-04-29T02:27:02;51.38;50.13;52.53;;
48148;Laerm;29352;48.708;9.290;2023-04-29T02:29:30;51.41;49.70;53.54;;
48148;Laerm;29352;48.708;9.290;2023-04-29T02:31:56;51.42;50.23;52.65;;
48148;Laerm;29352;48.708;9.290;2023-04-29T02:34:22;51.49;50.13;54.19;;
48148;Laerm;29352;48.708;9.290;2023-04-29T02:36:48;51.64;50.23;53.72;;
48148;Laerm;29352;48.708;9.290;2023-04-29T02:39:14;51.82;50.13;55.39;;
48148;Laerm;29352;48.708;9.290;2023-04-29T02:41:40;51.94;50.62;54.58;;
48148;Laerm;29352;48.708;9.290;2023-04-29T02:44:06;51.78;50.23;54.54;;
48148;Laerm;29352;48.708;9.290;2023-04-29T02:46:32;51.65;50.43;54.73;;
48148;Laerm;29352;48.708;9.290;2023-04-29T02:48:59;51.61;49.81;54.51;;
48148;Laerm;29352;48.708;9.290;2023-04-29T02:51:27;51.64;50.03;56.62;;
48148;Laerm;29352;48.708;9.290;2023-04-29T02:53:52;51.43;49.92;53.58;;
48148;Laerm;29352;48.708;9.290;2023-04-29T02:56:18;51.36;49.58;52.82;;
48148;Laerm;29352;48.708;9.290;2023-04-29T02:58:44;51.43;49.92;53.72;;
48148;Laerm;29352;48.708;9.290;2023-04-29T03:01:10;51.25;49.58;52.76;;
48148;Laerm;29352;48.708;9.290;2023-04-29T03:03:35;51.17;49.78;52.53;;
48148;Laerm;29352;48.708;9.290;2023-04-29T03:06:01;51.17;49.70;52.29;;
48148;Laerm;29352;48.708;9.290;2023-04-29T03:08:26;51.23;49.92;53.14;;
48148;Laerm;29352;48.708;9.290;2023-04-29T03:10:52;51.18;49.81;52.35;;
48148;Laerm;29352;48.708;9.290;2023-04-29T03:13:18;51.10;49.92;52.35;;
48148;Laerm;29352;48.708;9.290;2023-04-29T03:15:43;51.10;49.92;52.30;;
48148;Laerm;29352;48.708;9.290;2023-04-29T03:18:09;51.12;49.58;52.22;;
48148;Laerm;29352;48.708;9.290;2023-04-29T03:20:34;51.03;49.57;52.35;;
48148;Laerm;29352;48.708;9.290;2023-04-29T03:22:59;51.05;49.70;55.86;;
48148;Laerm;29352;48.708;9.290;2023-04-29T03:25:25;51.07;49.46;52.76;;
48148;Laerm;29352;48.708;9.290;2023-04-29T03:27:50;50.98;49.70;52.29;;
48148;Laerm;29352;48.708;9.290;2023-04-29T03:30:16;50.97;49.58;52.22;;
48148;Laerm;29352;48.708;9.290;2023-04-29T03:32:42;50.92;49.58;52.09;;
48148;Laerm;29352;48.708;9.290;2023-04-29T03:35:07;50.90;49.46;52.03;;
48148;Laerm;29352;48.708;9.290;2023-04-29T03:37:33;50.93;49.46;57.48;;
48148;Laerm;29352;48.708;9.290;2023-04-29T03:39:58;50.99;49.58;52.22;;
48148;Laerm;29352;48.708;9.290;2023-04-29T03:42:24;50.94;49.58;52.65;;
48148;Laerm;29352;48.708;9.290;2023-04-29T03:44:49;50.89;49.46;52.22;;
48148;Laerm;29352;48.708;9.290;2023-04-29T03:47:15;50.94;49.58;52.76;;
48148;Laerm;29352;48.708;9.290;2023-04-29T03:49:40;50.94;49.58;52.82;;
48148;Laerm;29352;48.708;9.290;2023-04-29T03:52:06;50.96;49.58;52.82;;
48148;Laerm;29352;48.708;9.290;2023-04-29T03:54:31;50.92;49.34;52.35;;
48148;Laerm;29352;48.708;9.290;2023-04-29T03:56:57;50.92;49.34;53.09;;
48148;Laerm;29352;48.708;9.290;2023-04-29T03:59:22;50.92;49.34;52.93;;
48148;Laerm;29352;48.708;9.290;2023-04-29T04:01:48;50.91;49.58;52.16;;
48148;Laerm;29352;48.708;9.290;2023-04-29T04:04:13;50.88;49.11;52.03;;
48148;Laerm;29352;48.708;9.290;2023-04-29T04:06:39;50.87;49.46;52.41;;
48148;Laerm;29352;48.708;9.290;2023-04-29T04:09:04;50.87;49.46;52.59;;
48148;Laerm;29352;48.708;9.290;2023-04-29T04:11:30;50.84;49.46;52.29;;
48148;Laerm;29352;48.708;9.290;2023-04-29T04:13:55;50.87;49.46;52.22;;
48148;Laerm;29352;48.708;9.290;2023-04-29T04:16:21;50.85;49.34;52.09;;
48148;Laerm;29352;48.708;9.290;2023-04-29T04:18:46;50.88;49.21;52.22;;
48148;Laerm;29352;48.708;9.290;2023-04-29T04:21:12;50.92;49.58;52.47;;
48148;Laerm;29352;48.708;9.290;2023-04-29T04:23:39;50.89;49.21;52.47;;
48148;Laerm;29352;48.708;9.290;2023-04-29T04:26:06;51.00;49.34;53.24;;
48148;Laerm;29352;48.708;9.290;2023-04-29T04:28:32;51.04;49.46;58.77;;
48148;Laerm;29352;48.708;9.290;2023-04-29T04:30:57;51.13;49.58;53.19;;
48148;Laerm;29352;48.708;9.290;2023-04-29T04:33:24;51.32;49.81;55.57;;
48148;Laerm;29352;48.708;9.290;2023-04-29T04:35:50;51.11;49.35;58.90;;
48148;Laerm;29352;48.708;9.290;2023-04-29T04:38:16;50.93;49.58;54.95;;
48148;Laerm;29352;48.708;9.290;2023-04-29T04:40:43;50.95;49.46;54.15;;
48148;Laerm;29352;48.708;9.290;2023-04-29T04:43:09;50.96;49.21;52.71;;
48148;Laerm;29352;48.708;9.290;2023-04-29T04:45:35;50.95;49.21;54.39;;
48148;Laerm;29352;48.708;9.290;2023-04-29T04:48:01;50.94;49.46;53.34;;
48148;Laerm;29352;48.708;9.290;2023-04-29T04:50:28;50.93;49.46;53.49;;
48148;Laerm;29352;48.708;9.290;2023-04-29T04:52:55;50.97;49.34;52.22;;
48148;Laerm;29352;48.708;9.290;2023-04-29T04:55:21;51.02;49.46;52.41;;
48148;Laerm;29352;48.708;9.290;2023-04-29T04:57:47;51.11;49.70;52.35;;
48148;Laerm;29352;48.708;9.290;2023-04-29T05:00:13;51.56;50.03;53.04;;
48148;Laerm;29352;48.708;9.290;2023-04-29T05:02:38;52.79;51.14;54.27;;
48148;Laerm;29352;48.708;9.290;2023-04-29T05:05:04;53.77;52.59;59.78;;
48148;Laerm;29352;48.708;9.290;2023-04-29T05:07:31;54.12;52.82;64.41;;
48148;Laerm;29352;48.708;9.290;2023-04-29T05:09:57;54.19;52.98;58.69;;
48148;Laerm;29352;48.708;9.290;2023-04-29T05:12:22;54.21;53.09;57.74;;
48148;Laerm;29352;48.708;9.290;2023-04-29T05:14:52;54.21;52.88;63.42;;
48148;Laerm;29352;48.708;9.290;2023-04-29T05:17:17;54.75;53.24;64.27;;
48148;Laerm;29352;48.708;9.290;2023-04-29T05:19:43;54.43;53.24;56.69;;
48148;Laerm;29352;48.708;9.290;2023-04-29T05:22:08;54.60;53.09;56.52;;
48148;Laerm;29352;48.708;9.290;2023-04-29T05:24:34;55.19;53.34;60.09;;
48148;Laerm;29352;48.708;9.290;2023-04-29T05:26:59;55.58;52.98;61.46;;
48148;Laerm;29352;48.708;9.290;2023-04-29T05:29:25;55.46;53.04;62.45;;
48148;Laerm;29352;48.708;9.290;2023-04-29T05:31:51;55.16;52.82;62.05;;
48148;Laerm;29352;48.708;9.290;2023-04-29T05:34:17;54.71;53.29;61.54;;
48148;Laerm;29352;48.708;9.290;2023-04-29T05:36:42;54.55;53.09;56.71;;
48148;Laerm;29352;48.708;9.290;2023-04-29T05:39:08;54.53;53.14;57.38;;
48148;Laerm;29352;48.708;9.290;2023-04-29T05:41:33;54.63;53.19;56.52;;
48148;Laerm;29352;48.708;9.290;2023-04-29T05:43:59;54.49;53.24;56.55;;
48148;Laerm;29352;48.708;9.290;2023-04-29T05:46:24;54.48;53.09;62.80;;
48148;Laerm;29352;48.708;9.290;2023-04-29T05:48:50;54.22;52.98;60.99;;
48148;Laerm;29352;48.708;9.290;2023-04-29T05:51:16;54.02;52.93;58.13;;
48148;Laerm;29352;48.708;9.290;2023-04-29T05:53:41;54.01;52.76;56.98;;
48148;Laerm;29352;48.708;9.290;2023-04-29T05:56:07;53.99;52.93;55.97;;
48148;Laerm;29352;48.708;9.290;2023-04-29T05:58:34;53.98;52.88;55.91;;
48148;Laerm;29352;48.708;9.290;2023-04-29T06:00:59;53.86;52.71;55.17;;
48148;Laerm;29352;48.708;9.290;2023-04-29T06:03:25;53.93;52.65;56.50;;
48148;Laerm;29352;48.708;9.290;2023-04-29T06:05:52;54.06;52.76;56.45;;
48148;Laerm;29352;48.708;9.290;2023-04-29T06:08:18;54.34;52.98;62.14;;
48148;Laerm;29352;48.708;9.290;2023-04-29T06:10:44;54.63;53.37;62.47;;
48148;Laerm;29352;48.708;9.290;2023-04-29T06:13:11;54.62;53.34;59.72;;
48148;Laerm;29352;48.708;9.290;2023-04-29T06:15:36;54.55;53.34;62.93;;
48148;Laerm;29352;48.708;9.290;2023-04-29T06:18:02;54.60;53.49;58.46;;
48148;Laerm;29352;48.708;9.290;2023-04-29T06:20:28;54.49;53.44;57.22;;
48148;Laerm;29352;48.708;9.290;2023-04-29T06:22:53;54.38;53.29;58.70;;
48148;Laerm;29352;48.708;9.290;2023-04-29T06:25:19;54.26;53.29;60.75;;
48148;Laerm;29352;48.708;9.290;2023-04-29T06:27:44;54.46;53.29;55.57;;
48148;Laerm;29352;48.708;9.290;2023-04-29T06:30:10;54.56;53.44;56.07;;
48148;Laerm;29352;48.708;9.290;2023-04-29T06:32:38;54.59;53.34;56.86;;
48148;Laerm;29352;48.708;9.290;2023-04-29T06:35:04;54.62;53.49;55.99;;
48148;Laerm;29352;48.708;9.290;2023-04-29T06:37:29;54.55;53.37;55.97;;
48148;Laerm;29352;48.708;9.290;2023-04-29T06:39:55;54.39;53.09;57.48;;
48148;Laerm;29352;48.708;9.290;2023-04-29T06:42:20;54.43;53.39;57.95;;
48148;Laerm;29352;48.708;9.290;2023-04-29T06:44:46;54.38;53.19;57.57;;
48148;Laerm;29352;48.708;9.290;2023-04-29T06:47:11;54.40;53.09;57.79;;
48148;Laerm;29352;48.708;9.290;2023-04-29T06:49:37;54.41;53.24;61.35;;
48148;Laerm;29352;48.708;9.290;2023-04-29T06:52:03;54.41;53.29;63.62;;
48148;Laerm;29352;48.708;9.290;2023-04-29T06:54:28;54.34;52.93;55.66;;
48148;Laerm;29352;48.708;9.290;2023-04-29T06:56:54;54.29;53.19;62.79;;
48148;Laerm;29352;48.708;9.290;2023-04-29T06:59:19;54.24;53.14;56.23;;
48148;Laerm;29352;48.708;9.290;2023-04-29T07:01:44;54.11;53.14;55.99;;
48148;Laerm;29352;48.708;9.290;2023-04-29T07:04:10;54.03;52.88;55.07;;
48148;Laerm;29352;48.708;9.290;2023-04-29T07:06:36;54.07;52.93;55.63;;
48148;Laerm;29352;48.708;9.290;2023-04-29T07:09:01;54.05;52.82;55.36;;
48148;Laerm;29352;48.708;9.290;2023-04-29T07:11:27;54.03;52.79;55.30;;
48148;Laerm;29352;48.708;9.290;2023-04-29T07:13:52;54.02;52.82;54.94;;
48148;Laerm;29352;48.708;9.290;2023-04-29T07:16:18;54.09;52.88;55.14;;
48148;Laerm;29352;48.708;9.290;2023-04-29T07:18:50;54.26;52.98;55.60;;
48148;Laerm;29352;48.708;9.290;2023-04-29T07:21:16;54.35;53.14;55.48;;
48148;Laerm;29352;48.708;9.290;2023-04-29T07:23:42;54.43;53.34;55.60;;
48148;Laerm;29352;48.708;9.290;2023-04-29T07:26:16;54.72;53.60;56.25;;
48148;Laerm;29352;48.708;9.290;2023-04-29T07:28:43;54.68;53.49;55.91;;
48148;Laerm;29352;48.708;9.290;2023-04-29T07:31:09;54.64;53.58;55.63;;
48148;Laerm;29352;48.708;9.290;2023-04-29T07:33:37;54.58;53.34;57.00;;
48148;Laerm;29352;48.708;9.290;2023-04-29T07:36:03;54.55;53.39;56.25;;
48148;Laerm;29352;48.708;9.290;2023-04-29T07:38:29;54.58;53.51;55.60;;
48148;Laerm;29352;48.708;9.290;2023-04-29T07:40:55;54.54;53.39;56.64;;
48148;Laerm;29352;48.708;9.290;2023-04-29T07:43:20;54.40;53.34;57.06;;
48148;Laerm;29352;48.708;9.290;2023-04-29T07:45:46;54.30;53.09;57.08;;
48148;Laerm;29352;48.708;9.290;2023-04-29T07:48:12;54.43;53.14;56.48;;
48148;Laerm;29352;48.708;9.290;2023-04-29T07:50:37;54.53;53.44;55.51;;
48148;Laerm;29352;48.708;9.290;2023-04-29T07:53:03;54.53;53.44;55.66;;
48148;Laerm;29352;48.708;9.290;2023-04-29T07:55:29;54.46;53.34;61.32;;
48148;Laerm;29352;48.708;9.290;2023-04-29T07:57:56;54.30;53.09;56.97;;
48148;Laerm;29352;48.708;9.290;2023-04-29T08:00:22;54.15;52.88;55.30;;
48148;Laerm;29352;48.708;9.290;2023-04-29T08:02:52;54.11;52.93;55.80;;
48148;Laerm;29352;48.708;9.290;2023-04-29T08:05:18;54.07;52.82;56.50;;
48148;Laerm;29352;48.708;9.290;2023-04-29T08:07:46;54.04;53.04;55.69;;
48148;Laerm;29352;48.708;9.290;2023-04-29T08:10:13;54.05;52.82;55.17;;
48148;Laerm;29352;48.708;9.290;2023-04-29T08:12:39;54.03;53.04;55.14;;
48148;Laerm;29352;48.708;9.290;2023-04-29T08:15:05;54.05;52.93;55.11;;
48148;Laerm;29352;48.708;9.290;2023-04-29T08:17:30;54.09;52.93;55.23;;
48148;Laerm;29352;48.708;9.290;2023-04-29T08:19:56;54.11;53.04;55.17;;
48148;Laerm;29352;48.708;9.290;2023-04-29T08:22:21;54.14;53.04;55.17;;
48148;Laerm;29352;48.708;9.290;2023-04-29T08:24:47;54.08;52.93;55.11;;
48148;Laerm;29352;48.708;9.290;2023-04-29T08:27:13;54.07;52.76;55.33;;
48148;Laerm;29352;48.708;9.290;2023-04-29T08:29:40;54.03;52.93;55.11;;
48148;Laerm;29352;48.708;9.290;2023-04-29T08:32:06;54.04;53.04;55.04;;
48148;Laerm;29352;48.708;9.290;2023-04-29T08:34:31;54.07;53.04;55.01;;
48148;Laerm;29352;48.708;9.290;2023-04-29T08:36:58;54.06;52.98;55.07;;
48148;Laerm;29352;48.708;9.290;2023-04-29T08:39:24;54.07;53.04;55.17;;
48148;Laerm;29352;48.708;9.290;2023-04-29T08:41:50;54.08;52.88;55.07;;
48148;Laerm;29352;48.708;9.290;2023-04-29T08:44:17;54.09;53.09;55.14;;
48148;Laerm;29352;48.708;9.290;2023-04-29T08:46:44;54.12;52.88;58.42;;
48148;Laerm;29352;48.708;9.290;2023-04-29T08:49:11;54.13;53.09;56.95;;
48148;Laerm;29352;48.708;9.290;2023-04-29T08:51:38;54.14;53.04;55.27;;
48148;Laerm;29352;48.708;9.290;2023-04-29T08:54:03;54.16;53.04;55.23;;
48148;Laerm;29352;48.708;9.290;2023-04-29T08:56:30;54.18;53.09;55.23;;
48148;Laerm;29352;48.708;9.290;2023-04-29T08:59:01;54.15;52.88;55.17;;
48148;Laerm;29352;48.708;9.290;2023-04-29T09:01:28;54.18;53.09;55.45;;
48148;Laerm;29352;48.708;9.290;2023-04-29T09:06:38;54.18;52.09;55.20;;
48148;Laerm;29352;48.708;9.290;2023-04-29T09:09:05;54.11;52.76;55.23;;
48148;Laerm;29352;48.708;9.290;2023-04-29T09:11:32;54.09;52.88;55.20;;
48148;Laerm;29352;48.708;9.290;2023-04-29T09:14:00;54.08;52.93;55.30;;
48148;Laerm;29352;48.708;9.290;2023-04-29T09:16:27;54.02;52.82;55.43;;
48148;Laerm;29352;48.708;9.290;2023-04-29T09:18:53;54.01;52.98;55.11;;
48148;Laerm;29352;48.708;9.290;2023-04-29T09:21:23;54.03;52.93;55.04;;
48148;Laerm;29352;48.708;9.290;2023-04-29T09:23:55;54.06;53.09;55.07;;
48148;Laerm;29352;48.708;9.290;2023-04-29T09:26:22;54.09;52.98;55.11;;
48148;Laerm;29352;48.708;9.290;2023-04-29T09:29:09;54.13;53.04;55.20;;
48148;Laerm;29352;48.708;9.290;2023-04-29T09:31:41;54.15;53.09;55.33;;
48148;Laerm;29352;48.708;9.290;2023-04-29T09:34:07;54.17;53.14;55.20;;
48148;Laerm;29352;48.708;9.290;2023-04-29T09:39:17;54.16;52.93;55.23;;
48148;Laerm;29352;48.708;9.290;2023-04-29T09:44:15;54.14;53.14;55.36;;
48148;Laerm;29352;48.708;9.290;2023-04-29T09:46:41;54.15;53.04;55.27;;
48148;Laerm;29352;48.708;9.290;2023-04-29T09:49:25;54.17;53.09;55.14;;
48148;Laerm;29352;48.708;9.290;2023-04-29T09:51:54;54.23;52.82;55.33;;
48148;Laerm;29352;48.708;9.290;2023-04-29T09:54:23;54.33;53.04;55.33;;
48148;Laerm;29352;48.708;9.290;2023-04-29T09:56:51;54.28;53.19;55.36;;
48148;Laerm;29352;48.708;9.290;2023-04-29T09:59:18;54.22;53.09;55.23;;
48148;Laerm;29352;48.708;9.290;2023-04-29T10:01:49;54.20;53.09;55.27;;
48148;Laerm;29352;48.708;9.290;2023-04-29T10:04:18;54.25;52.93;55.43;;
48148;Laerm;29352;48.708;9.290;2023-04-29T10:06:47;54.35;53.39;55.39;;
48148;Laerm;29352;48.708;9.290;2023-04-29T10:09:15;54.34;53.24;55.45;;
48148;Laerm;29352;48.708;9.290;2023-04-29T10:11:43;54.32;53.24;55.23;;
48148;Laerm;29352;48.708;9.290;2023-04-29T10:14:16;54.24;52.93;55.45;;
48148;Laerm;29352;48.708;9.290;2023-04-29T10:17:02;54.23;53.19;55.23;;
48148;Laerm;29352;48.708;9.290;2023-04-29T10:19:51;54.11;53.09;55.20;;
48148;Laerm;29352;48.708;9.290;2023-04-29T10:22:28;54.18;52.93;55.30;;
48148;Laerm;29352;48.708;9.290;2023-04-29T10:25:00;54.24;53.19;55.45;;
48148;Laerm;29352;48.708;9.290;2023-04-29T10:27:28;54.27;53.29;63.52;;
48148;Laerm;29352;48.708;9.290;2023-04-29T10:29:59;54.19;52.98;55.20;;
48148;Laerm;29352;48.708;9.290;2023-04-29T10:32:27;54.11;52.88;55.51;;
48148;Laerm;29352;48.708;9.290;2023-04-29T10:34:55;54.04;52.93;55.07;;
48148;Laerm;29352;48.708;9.290;2023-04-29T10:37:24;54.02;52.88;55.39;;
48148;Laerm;29352;48.708;9.290;2023-04-29T10:40:14;53.88;52.76;55.11;;
48148;Laerm;29352;48.708;9.290;2023-04-29T10:42:48;53.90;52.71;54.94;;
48148;Laerm;29352;48.708;9.290;2023-04-29T10:45:32;53.93;52.53;55.30;;
48148;Laerm;29352;48.708;9.290;2023-04-29T10:53:02;53.98;52.82;55.07;;
48148;Laerm;29352;48.708;9.290;2023-04-29T10:55:30;53.95;52.82;55.07;;
48148;Laerm;29352;48.708;9.290;2023-04-29T10:57:57;54.01;52.35;55.07;;
48148;Laerm;29352;48.708;9.290;2023-04-29T11:00:27;53.97;52.71;55.11;;
48148;Laerm;29352;48.708;9.290;2023-04-29T11:02:54;53.93;52.71;55.01;;
48148;Laerm;29352;48.708;9.290;2023-04-29T11:05:35;53.87;52.71;55.01;;
48148;Laerm;29352;48.708;9.290;2023-04-29T11:08:12;53.80;52.65;54.94;;
48148;Laerm;29352;48.708;9.290;2023-04-29T11:10:42;53.77;52.71;57.06;;
48148;Laerm;29352;48.708;9.290;2023-04-29T11:13:25;53.81;52.74;55.36;;
48148;Laerm;29352;48.708;9.290;2023-04-29T11:15:52;53.93;52.93;55.11;;
48148;Laerm;29352;48.708;9.290;2023-04-29T11:18:18;54.05;52.76;55.14;;
48148;Laerm;29352;48.708;9.290;2023-04-29T11:21:11;54.04;52.93;55.04;;
48148;Laerm;29352;48.708;9.290;2023-04-29T11:23:39;54.04;52.93;55.11;;
48148;Laerm;29352;48.708;9.290;2023-04-29T11:26:10;54.01;52.65;55.04;;
48148;Laerm;29352;48.708;9.290;2023-04-29T11:28:35;53.95;52.88;55.11;;
48148;Laerm;29352;48.708;9.290;2023-04-29T11:31:01;53.96;52.82;55.75;;
48148;Laerm;29352;48.708;9.290;2023-04-29T11:33:31;53.91;52.85;55.07;;
48148;Laerm;29352;48.708;9.290;2023-04-29T11:35:57;53.87;52.82;55.01;;
48148;Laerm;29352;48.708;9.290;2023-04-29T11:38:25;53.94;52.59;54.97;;
48148;Laerm;29352;48.708;9.290;2023-04-29T11:40:51;53.93;52.76;55.01;;
48148;Laerm;29352;48.708;9.290;2023-04-29T11:43:18;53.87;52.76;54.97;;
48148;Laerm;29352;48.708;9.290;2023-04-29T11:45:45;53.93;52.88;54.90;;
48148;Laerm;29352;48.708;9.290;2023-04-29T11:48:25;53.93;52.88;55.07;;
48148;Laerm;29352;48.708;9.290;2023-04-29T11:50:58;53.87;52.76;55.14;;
48148;Laerm;29352;48.708;9.290;2023-04-29T11:53:25;53.86;52.76;54.76;;
48148;Laerm;29352;48.708;9.290;2023-04-29T11:55:55;53.89;52.76;55.30;;
48148;Laerm;29352;48.708;9.290;2023-04-29T11:58:23;53.90;52.76;54.90;;
48148;Laerm;29352;48.708;9.290;2023-04-29T12:00:49;53.89;52.82;55.99;;
48148;Laerm;29352;48.708;9.290;2023-04-29T12:03:19;53.91;52.88;54.94;;
48148;Laerm;29352;48.708;9.290;2023-04-29T12:05:50;53.87;52.76;59.49;;
48148;Laerm;29352;48.708;9.290;2023-04-29T12:08:25;53.82;52.53;57.91;;
48148;Laerm;29352;48.708;9.290;2023-04-29T12:10:53;53.80;52.65;59.91;;
48148;Laerm;29352;48.708;9.290;2023-04-29T12:13:23;53.74;52.64;59.71;;
48148;Laerm;29352;48.708;9.290;2023-04-29T12:15:51;53.60;52.59;54.62;;
48148;Laerm;29352;48.708;9.290;2023-04-29T12:18:19;53.62;52.53;54.94;;
48148;Laerm;29352;48.708;9.290;2023-04-29T12:20:47;53.67;52.41;54.58;;
48148;Laerm;29352;48.708;9.290;2023-04-29T12:23:16;53.68;52.71;54.69;;
48148;Laerm;29352;48.708;9.290;2023-04-29T12:25:58;53.74;52.71;55.48;;
48148;Laerm;29352;48.708;9.290;2023-04-29T12:28:26;53.73;52.53;54.73;;
48148;Laerm;29352;48.708;9.290;2023-04-29T12:30:53;53.75;52.59;54.82;;
48148;Laerm;29352;48.708;9.290;2023-04-29T12:33:19;53.75;52.53;54.69;;
48148;Laerm;29352;48.708;9.290;2023-04-29T12:35:50;53.80;52.65;54.73;;
48148;Laerm;29352;48.708;9.290;2023-04-29T12:38:26;53.85;52.71;55.07;;
48148;Laerm;29352;48.708;9.290;2023-04-29T12:40:54;53.91;52.71;54.94;;
48148;Laerm;29352;48.708;9.290;2023-04-29T12:43:26;53.87;52.65;55.01;;
48148;Laerm;29352;48.708;9.290;2023-04-29T12:45:59;53.81;52.41;57.22;;
48148;Laerm;29352;48.708;9.290;2023-04-29T12:48:29;53.81;52.76;57.44;;
48148;Laerm;29352;48.708;9.290;2023-04-29T12:50:56;53.80;52.65;56.73;;
48148;Laerm;29352;48.708;9.290;2023-04-29T12:53:25;53.77;52.76;54.76;;
48148;Laerm;29352;48.708;9.290;2023-04-29T12:55:52;53.78;52.59;56.25;;
48148;Laerm;29352;48.708;9.290;2023-04-29T12:58:18;53.82;52.53;54.94;;
48148;Laerm;29352;48.708;9.290;2023-04-29T13:00:44;53.82;52.65;54.83;;
48148;Laerm;29352;48.708;9.290;2023-04-29T13:03:09;53.81;52.65;54.87;;
48148;Laerm;29352;48.708;9.290;2023-04-29T13:05:35;53.79;52.65;55.97;;
48148;Laerm;29352;48.708;9.290;2023-04-29T13:08:01;53.79;52.59;57.90;;
48148;Laerm;29352;48.708;9.290;2023-04-29T13:10:26;53.86;52.47;57.26;;
48148;Laerm;29352;48.708;9.290;2023-04-29T13:12:53;53.85;52.65;58.91;;
48148;Laerm;29352;48.708;9.290;2023-04-29T13:15:19;53.88;52.53;58.20;;
48148;Laerm;29352;48.708;9.290;2023-04-29T13:17:45;53.76;52.59;56.38;;
48148;Laerm;29352;48.708;9.290;2023-04-29T13:20:11;53.71;52.71;54.69;;
48148;Laerm;29352;48.708;9.290;2023-04-29T13:22:37;53.70;52.65;54.69;;
48148;Laerm;29352;48.708;9.290;2023-04-29T13:25:03;53.67;52.59;54.90;;
48148;Laerm;29352;48.708;9.290;2023-04-29T13:27:29;53.66;52.47;54.80;;
48148;Laerm;29352;48.708;9.290;2023-04-29T13:29:55;53.63;52.41;54.54;;
48148;Laerm;29352;48.708;9.290;2023-04-29T13:32:21;53.63;52.53;54.73;;
48148;Laerm;29352;48.708;9.290;2023-04-29T13:34:49;53.64;51.38;54.62;;
48148;Laerm;29352;48.708;9.290;2023-04-29T13:37:15;53.64;52.59;54.76;;
48148;Laerm;29352;48.708;9.290;2023-04-29T13:39:41;53.68;52.59;54.65;;
48148;Laerm;29352;48.708;9.290;2023-04-29T13:42:07;53.67;52.35;54.87;;
48148;Laerm;29352;48.708;9.290;2023-04-29T13:44:32;53.63;52.59;54.62;;
48148;Laerm;29352;48.708;9.290;2023-04-29T13:46:58;53.65;52.47;54.69;;
48148;Laerm;29352;48.708;9.290;2023-04-29T13:49:24;53.68;52.41;54.69;;
48148;Laerm;29352;48.708;9.290;2023-04-29T13:51:51;53.71;52.59;54.97;;
48148;Laerm;29352;48.708;9.290;2023-04-29T13:54:16;53.71;52.53;54.76;;
48148;Laerm;29352;48.708;9.290;2023-04-29T13:56:45;53.71;52.59;54.79;;
48148;Laerm;29352;48.708;9.290;2023-04-29T13:59:10;53.68;50.23;54.69;;
48148;Laerm;29352;48.708;9.290;2023-04-29T14:01:36;53.66;52.65;54.73;;
48148;Laerm;29352;48.708;9.290;2023-04-29T14:04:01;53.66;52.71;54.69;;
48148;Laerm;29352;48.708;9.290;2023-04-29T14:06:27;53.69;52.71;54.62;;
48148;Laerm;29352;48.708;9.290;2023-04-29T14:08:53;53.74;52.59;54.94;;
48148;Laerm;29352;48.708;9.290;2023-04-29T14:11:18;53.74;52.65;54.87;;